createdAt,value
2022-09-15T00:02:11.468Z,14.37
2022-09-15T00:06:23.075Z,14.48
2022-09-15T00:10:34.730Z,14.58
2022-09-15T00:14:46.198Z,14.71
2022-09-15T00:18:58.636Z,14.76
2022-09-15T00:23:13.188Z,14.87
2022-09-15T00:27:24.687Z,14.96
2022-09-15T00:31:36.210Z,15.02
2022-09-15T00:35:52.597Z,15.12
2022-09-15T00:40:04.712Z,15.19
2022-09-15T00:44:16.220Z,15.28
2022-09-15T00:48:27.734Z,15.34
2022-09-15T00:52:47.753Z,15.39
2022-09-15T00:57:04.761Z,15.44
2022-09-15T01:01:16.889Z,15.47
2022-09-15T01:05:33.018Z,15.50
2022-09-15T01:09:51.901Z,15.46
2022-09-15T01:14:04.141Z,15.47
2022-09-15T01:18:15.535Z,15.46
2022-09-15T01:22:55.333Z,15.41
2022-09-15T01:27:41.448Z,15.34
2022-09-15T01:32:21.614Z,15.25
2022-09-15T01:36:55.604Z,15.18
2022-09-15T01:41:15.522Z,15.13
2022-09-15T01:45:32.165Z,15.10
2022-09-15T01:49:54.581Z,15.12
2022-09-15T01:54:06.772Z,15.14
2022-09-15T01:58:18.261Z,15.18
2022-09-15T02:02:36.092Z,15.21
2022-09-15T02:06:55.501Z,15.21
2022-09-15T02:11:13.742Z,15.23
2022-09-15T02:15:33.345Z,15.23
2022-09-15T02:19:53.417Z,15.19
2022-09-15T02:24:11.948Z,15.15
2022-09-15T02:28:28.667Z,15.02
2022-09-15T02:32:49.723Z,14.89
2022-09-15T02:37:02.183Z,14.76
2022-09-15T02:41:14.210Z,14.62
2022-09-15T02:45:26.866Z,14.54
2022-09-15T02:49:38.475Z,14.44
2022-09-15T02:53:50.078Z,14.39
2022-09-15T02:58:01.880Z,14.35
2022-09-15T03:02:13.987Z,14.36
2022-09-15T03:06:27.936Z,14.43
2022-09-15T03:10:39.689Z,14.46
2022-09-15T03:14:51.217Z,14.46
2022-09-15T03:19:03.890Z,14.54
2022-09-15T03:23:15.405Z,14.50
2022-09-15T03:27:27.445Z,14.47
2022-09-15T03:31:39.027Z,14.47
2022-09-15T03:35:51.944Z,14.44
2022-09-15T03:40:04.289Z,14.49
2022-09-15T03:44:15.870Z,14.55
2022-09-15T03:48:28.505Z,14.55
2022-09-15T03:52:40.041Z,14.63
2022-09-15T03:56:52.054Z,14.65
2022-09-15T04:01:04.002Z,14.69
2022-09-15T04:05:15.889Z,14.71
2022-09-15T04:09:27.690Z,14.77
2022-09-15T04:13:40.727Z,14.84
2022-09-15T04:17:52.305Z,14.83
2022-09-15T04:22:03.923Z,14.91
2022-09-15T04:26:21.754Z,14.88
2022-09-15T04:30:33.292Z,14.90
2022-09-15T04:34:44.870Z,14.88
2022-09-15T04:38:56.734Z,14.90
2022-09-15T04:43:08.352Z,14.90
2022-09-15T04:47:19.917Z,14.94
2022-09-15T04:51:31.543Z,14.92
2022-09-15T04:55:43.095Z,14.95
2022-09-15T04:59:54.657Z,14.97
2022-09-15T05:04:06.190Z,14.95
2022-09-15T05:08:17.736Z,14.98
2022-09-15T05:12:29.344Z,14.97
2022-09-15T05:16:40.960Z,14.99
2022-09-15T05:20:58.472Z,15.00
2022-09-15T05:25:10.413Z,14.99
2022-09-15T05:29:21.994Z,14.98
2022-09-15T05:33:34.405Z,14.99
2022-09-15T05:37:46.004Z,15.06
2022-09-15T05:41:57.634Z,15.05
2022-09-15T05:46:10.356Z,15.09
2022-09-15T05:50:21.969Z,15.17
2022-09-15T05:54:33.589Z,15.19
2022-09-15T05:58:46.762Z,15.21
2022-09-15T06:02:58.383Z,15.26
2022-09-15T06:07:09.970Z,15.30
2022-09-15T06:11:24.307Z,15.29
2022-09-15T06:15:35.889Z,15.35
2022-09-15T06:19:47.467Z,15.41
2022-09-15T06:24:01.269Z,15.50
2022-09-15T06:28:12.828Z,15.62
2022-09-15T06:32:24.474Z,15.89
2022-09-15T06:36:37.695Z,16.15
2022-09-15T06:40:59.330Z,16.29
2022-09-15T06:45:11.010Z,16.50
2022-09-15T06:49:22.586Z,16.58
2022-09-15T06:53:36.113Z,16.55
2022-09-15T06:57:47.685Z,16.50
2022-09-15T07:02:04.106Z,16.49
2022-09-15T07:06:17.113Z,16.56
2022-09-15T07:10:28.768Z,16.71
2022-09-15T07:14:40.301Z,16.92
2022-09-15T07:18:55.067Z,17.03
2022-09-15T07:23:06.567Z,17.10
2022-09-15T07:27:18.172Z,17.20
2022-09-15T07:31:33.507Z,17.30
2022-09-15T07:35:45.473Z,17.43
2022-09-15T07:39:57.037Z,17.62
2022-09-15T07:44:11.561Z,17.76
2022-09-15T07:48:26.367Z,18.03
2022-09-15T07:52:38.451Z,18.56
2022-09-15T07:56:50.048Z,18.77
2022-09-15T08:01:06.957Z,18.66
2022-09-15T08:05:18.542Z,18.36
2022-09-15T08:09:30.211Z,18.22
2022-09-15T08:13:41.739Z,17.96
2022-09-15T08:17:53.479Z,17.91
2022-09-15T08:22:05.623Z,17.93
2022-09-15T08:26:17.324Z,17.95
2022-09-15T08:30:28.982Z,17.89
2022-09-15T08:34:40.531Z,18.06
2022-09-15T08:38:52.250Z,18.08
2022-09-15T08:43:13.098Z,18.18
2022-09-15T08:47:29.569Z,18.35
2022-09-15T08:51:46.388Z,18.31
2022-09-15T08:56:09.354Z,18.36
2022-09-15T09:00:21.482Z,18.62
2022-09-15T09:04:46.293Z,18.86
2022-09-15T09:09:06.901Z,19.16
2022-09-15T09:13:34.686Z,19.58
2022-09-15T09:18:08.315Z,19.85
2022-09-15T09:22:35.749Z,20.14
2022-09-15T09:26:53.218Z,20.29
2022-09-15T09:31:07.884Z,20.42
2022-09-15T09:35:32.111Z,20.43
2022-09-15T09:39:43.696Z,20.33
2022-09-15T09:43:56.378Z,20.25
2022-09-15T09:48:23.536Z,20.11
2022-09-15T09:52:39.391Z,19.91
2022-09-15T09:56:52.690Z,19.87
2022-09-15T10:01:16.851Z,19.89
2022-09-15T10:05:28.577Z,20.13
2022-09-15T10:09:47.509Z,20.36
2022-09-15T10:13:59.142Z,20.64
2022-09-15T10:18:31.869Z,20.75
2022-09-15T10:22:43.836Z,20.80
2022-09-15T10:27:17.180Z,20.99
2022-09-15T10:31:32.156Z,21.22
2022-09-15T10:35:44.441Z,20.75
2022-09-15T10:40:00.257Z,20.26
2022-09-15T10:44:52.438Z,19.77
2022-09-15T10:49:20.553Z,19.41
2022-09-15T10:53:57.162Z,19.27
2022-09-15T10:58:28.744Z,19.38
2022-09-15T11:02:48.150Z,19.59
2022-09-15T11:07:24.381Z,20.02
2022-09-15T11:12:05.826Z,20.32
2022-09-15T11:16:33.389Z,20.31
2022-09-15T11:20:51.036Z,20.38
2022-09-15T11:25:12.867Z,20.34
2022-09-15T11:29:24.361Z,20.35
2022-09-15T11:33:47.643Z,20.40
2022-09-15T11:38:20.886Z,20.66
2022-09-15T11:42:48.929Z,21.08
2022-09-15T11:47:18.720Z,21.49
2022-09-15T11:51:37.752Z,21.61
2022-09-15T11:55:55.230Z,21.37
2022-09-15T12:00:13.390Z,21.43
2022-09-15T12:04:47.768Z,21.81
2022-09-15T12:09:02.225Z,22.80
2022-09-15T12:13:19.726Z,23.54
2022-09-15T12:17:40.454Z,23.77
2022-09-15T12:22:06.609Z,23.31
2022-09-15T12:26:20.762Z,22.95
2022-09-15T12:30:41.243Z,22.57
2022-09-15T12:35:03.742Z,22.16
2022-09-15T12:39:39.866Z,21.89
2022-09-15T12:44:01.212Z,21.40
2022-09-15T12:48:20.379Z,20.91
2022-09-15T12:52:41.653Z,20.88
2022-09-15T12:56:54.792Z,21.04
2022-09-15T13:01:18.801Z,21.43
2022-09-15T13:05:52.410Z,21.73
2022-09-15T13:10:12.856Z,21.80
2022-09-15T13:14:35.501Z,21.98
2022-09-15T13:18:47.454Z,22.12
2022-09-15T13:22:59.909Z,22.22
2022-09-15T13:27:13.301Z,22.06
2022-09-15T13:31:57.229Z,21.71
2022-09-15T13:41:34.108Z,20.69
2022-09-15T13:45:57.786Z,20.38
2022-09-15T13:50:35.330Z,20.29
2022-09-15T13:55:10.077Z,20.07
2022-09-15T13:59:27.197Z,19.82
2022-09-15T14:03:38.994Z,19.81
2022-09-15T14:07:59.191Z,19.75
2022-09-15T14:12:15.009Z,19.90
2022-09-15T14:16:26.523Z,20.06
2022-09-15T14:20:38.104Z,20.25
2022-09-15T14:24:51.138Z,20.42
2022-09-15T14:29:05.904Z,20.55
2022-09-15T14:33:18.014Z,20.50
2022-09-15T14:37:34.546Z,20.50
2022-09-15T14:41:47.227Z,20.43
2022-09-15T14:46:12.144Z,20.39
2022-09-15T14:50:23.730Z,20.36
2022-09-15T14:54:37.677Z,20.05
2022-09-15T14:59:03.366Z,19.64
2022-09-15T15:03:30.725Z,19.40
2022-09-15T15:07:43.455Z,19.32
2022-09-15T15:12:00.502Z,19.23
2022-09-15T15:16:49.761Z,19.28
2022-09-15T15:21:01.455Z,19.11
2022-09-15T15:25:28.290Z,19.20
2022-09-15T15:29:48.258Z,19.19
2022-09-15T15:34:05.466Z,19.16
2022-09-15T15:38:19.472Z,19.01
2022-09-15T15:42:31.101Z,19.06
2022-09-15T15:46:56.688Z,19.04
2022-09-15T15:51:09.373Z,18.99
2022-09-15T15:55:23.609Z,18.98
2022-09-15T15:59:35.170Z,18.95
2022-09-15T16:03:46.731Z,18.74
2022-09-15T16:08:03.865Z,18.56
2022-09-15T16:12:16.564Z,18.39
2022-09-15T16:16:29.277Z,18.44
2022-09-15T16:20:42.201Z,18.54
2022-09-15T16:24:55.126Z,18.64
2022-09-15T16:29:06.726Z,18.63
2022-09-15T16:33:18.874Z,18.51
2022-09-15T16:37:30.475Z,18.53
2022-09-15T16:41:42.180Z,18.43
2022-09-15T16:45:54.176Z,18.47
2022-09-15T16:50:05.869Z,18.31
2022-09-15T16:54:20.215Z,18.11
2022-09-15T16:58:31.981Z,17.99
2022-09-15T17:02:43.609Z,17.95
2022-09-15T17:06:55.219Z,17.88
2022-09-15T17:11:16.224Z,17.81
2022-09-15T17:15:37.676Z,17.70
2022-09-15T17:19:49.282Z,17.56
2022-09-15T17:24:00.910Z,17.57
2022-09-15T17:28:12.517Z,17.35
2022-09-15T17:32:24.064Z,17.30
2022-09-15T17:36:37.266Z,17.26
2022-09-15T17:40:50.022Z,17.14
2022-09-15T17:45:01.557Z,17.09
2022-09-15T17:49:13.450Z,17.08
2022-09-15T17:53:28.926Z,16.93
2022-09-15T17:57:40.676Z,16.97
2022-09-15T18:01:52.357Z,16.92
2022-09-15T18:06:08.705Z,16.87
2022-09-15T18:10:21.599Z,16.92
2022-09-15T18:14:33.627Z,16.82
2022-09-15T18:18:45.311Z,16.75
2022-09-15T18:22:57.211Z,16.66
2022-09-15T18:27:08.844Z,16.55
2022-09-15T18:31:20.495Z,16.41
2022-09-15T18:35:32.131Z,16.34
2022-09-15T18:39:43.786Z,16.25
2022-09-15T18:43:55.399Z,16.17
2022-09-15T18:48:12.015Z,16.05
2022-09-15T18:52:24.682Z,15.91
2022-09-15T18:56:36.289Z,15.76
2022-09-15T19:00:49.049Z,15.76
2022-09-15T19:05:00.785Z,15.71
2022-09-15T19:09:12.389Z,15.75
2022-09-15T19:13:24.042Z,15.74
2022-09-15T19:17:35.934Z,15.55
2022-09-15T19:21:47.496Z,15.48
2022-09-15T19:26:02.498Z,15.35
2022-09-15T19:30:14.452Z,15.20
2022-09-15T19:34:26.013Z,15.18
2022-09-15T19:38:38.193Z,15.19
2022-09-15T19:42:50.318Z,15.14
2022-09-15T19:47:01.982Z,15.19
2022-09-15T19:51:14.618Z,15.20
2022-09-15T19:55:26.984Z,15.20
2022-09-15T19:59:38.734Z,15.25
2022-09-15T20:03:53.411Z,15.18
2022-09-15T20:08:05.116Z,15.21
2022-09-15T20:12:16.821Z,15.11
2022-09-15T20:16:29.788Z,15.07
2022-09-15T20:20:41.431Z,14.99
2022-09-15T20:24:53.158Z,14.92
2022-09-15T20:29:05.345Z,14.83
2022-09-15T20:33:16.947Z,14.67
2022-09-15T20:37:28.594Z,14.60
2022-09-15T20:41:41.855Z,14.47
2022-09-15T20:45:57.335Z,14.37
2022-09-15T20:50:09.102Z,14.24
2022-09-15T20:54:20.802Z,14.27
2022-09-15T20:58:36.705Z,14.23
2022-09-15T21:02:51.939Z,14.25
2022-09-15T21:07:03.575Z,14.25
2022-09-15T21:11:16.734Z,14.22
2022-09-15T21:15:28.278Z,14.19
2022-09-15T21:19:40.240Z,14.08
2022-09-15T21:23:58.676Z,14.04
2022-09-15T21:28:10.215Z,13.98
2022-09-15T21:32:21.741Z,13.97
2022-09-15T21:36:33.940Z,13.94
2022-09-15T21:40:49.770Z,13.96
2022-09-15T21:45:01.737Z,13.99
2022-09-15T21:49:13.872Z,13.98
2022-09-15T21:53:26.318Z,13.99
2022-09-15T21:57:37.911Z,13.91
2022-09-15T22:01:49.670Z,13.82
2022-09-15T22:06:01.831Z,13.71
2022-09-15T22:10:13.435Z,13.62
2022-09-15T22:14:25.011Z,13.63
2022-09-15T22:18:38.368Z,13.64
2022-09-15T22:22:50.206Z,13.57
2022-09-15T22:27:01.734Z,13.60
2022-09-15T22:31:15.258Z,13.57
2022-09-15T22:35:27.423Z,13.40
2022-09-15T22:39:58.096Z,13.41
2022-09-15T22:44:18.689Z,13.31
2022-09-15T22:48:30.283Z,13.18
2022-09-15T22:52:41.836Z,13.13
2022-09-15T22:56:53.482Z,13.10
2022-09-15T23:01:06.339Z,13.09
2022-09-15T23:05:18.070Z,13.06
2022-09-15T23:09:29.649Z,13.03
2022-09-15T23:13:41.497Z,13.10
2022-09-15T23:17:53.098Z,13.20
2022-09-15T23:22:04.632Z,13.30
2022-09-15T23:26:18.549Z,13.36
2022-09-15T23:30:30.129Z,13.36
2022-09-15T23:34:41.692Z,13.38
2022-09-15T23:38:53.379Z,13.38
2022-09-15T23:43:04.960Z,13.27
2022-09-15T23:47:16.894Z,13.19
2022-09-15T23:51:28.413Z,13.16
2022-09-15T23:55:40.156Z,13.08
2022-09-15T23:59:52.278Z,13.11
